sensor_id;sensor_type;location;lat;lon;timestamp;P1;durP1;ratioP1;P2;durP2;ratioP2
17686;SDS011;8962;52.538;13.266;2022-11-03T00:01:08;11.82;;;5.68;;
17686;SDS011;8962;52.538;13.266;2022-11-03T00:03:36;11.73;;;5.47;;
17686;SDS011;8962;52.538;13.266;2022-11-03T00:06:03;9.32;;;5.35;;
17686;SDS011;8962;52.538;13.266;2022-11-03T00:08:29;12.15;;;5.18;;
17686;SDS011;8962;52.538;13.266;2022-11-03T00:11:00;11.02;;;5.57;;
17686;SDS011;8962;52.538;13.266;2022-11-03T00:13:27;17.40;;;5.25;;
17686;SDS011;8962;52.538;13.266;2022-11-03T00:15:56;11.32;;;5.45;;
17686;SDS011;8962;52.538;13.266;2022-11-03T00:18:22;11.57;;;5.32;;
17686;SDS011;8962;52.538;13.266;2022-11-03T00:20:54;13.43;;;5.15;;
17686;SDS011;8962;52.538;13.266;2022-11-03T00:23:23;11.65;;;5.72;;
17686;SDS011;8962;52.538;13.266;2022-11-03T00:25:51;11.55;;;5.25;;
17686;SDS011;8962;52.538;13.266;2022-11-03T00:28:18;10.13;;;5.07;;
17686;SDS011;8962;52.538;13.266;2022-11-03T00:30:45;10.65;;;4.93;;
17686;SDS011;8962;52.538;13.266;2022-11-03T00:33:13;12.85;;;5.25;;
17686;SDS011;8962;52.538;13.266;2022-11-03T00:35:40;13.18;;;4.93;;
17686;SDS011;8962;52.538;13.266;2022-11-03T00:38:07;11.18;;;5.13;;
17686;SDS011;8962;52.538;13.266;2022-11-03T00:40:34;11.07;;;5.10;;
17686;SDS011;8962;52.538;13.266;2022-11-03T00:43:01;13.70;;;5.28;;
17686;SDS011;8962;52.538;13.266;2022-11-03T00:45:28;10.70;;;4.88;;
17686;SDS011;8962;52.538;13.266;2022-11-03T00:47:55;10.68;;;4.97;;
17686;SDS011;8962;52.538;13.266;2022-11-03T00:50:41;10.15;;;4.88;;
17686;SDS011;8962;52.538;13.266;2022-11-03T00:53:08;13.05;;;4.78;;
17686;SDS011;8962;52.538;13.266;2022-11-03T00:55:35;17.10;;;5.57;;
17686;SDS011;8962;52.538;13.266;2022-11-03T00:58:02;10.93;;;5.20;;
17686;SDS011;8962;52.538;13.266;2022-11-03T01:00:29;11.52;;;4.97;;
17686;SDS011;8962;52.538;13.266;2022-11-03T01:02:56;13.77;;;4.90;;
17686;SDS011;8962;52.538;13.266;2022-11-03T01:05:23;9.65;;;5.03;;
17686;SDS011;8962;52.538;13.266;2022-11-03T01:08:17;11.70;;;4.95;;
17686;SDS011;8962;52.538;13.266;2022-11-03T01:10:44;9.90;;;4.97;;
17686;SDS011;8962;52.538;13.266;2022-11-03T01:13:25;14.20;;;5.03;;
17686;SDS011;8962;52.538;13.266;2022-11-03T01:15:55;10.70;;;4.88;;
17686;SDS011;8962;52.538;13.266;2022-11-03T01:18:22;12.23;;;5.00;;
17686;SDS011;8962;52.538;13.266;2022-11-03T01:20:53;10.85;;;5.18;;
17686;SDS011;8962;52.538;13.266;2022-11-03T01:23:22;13.18;;;5.13;;
17686;SDS011;8962;52.538;13.266;2022-11-03T01:25:49;15.85;;;5.72;;
17686;SDS011;8962;52.538;13.266;2022-11-03T01:28:16;12.20;;;4.90;;
17686;SDS011;8962;52.538;13.266;2022-11-03T01:30:43;13.35;;;5.10;;
17686;SDS011;8962;52.538;13.266;2022-11-03T01:33:10;10.98;;;4.88;;
17686;SDS011;8962;52.538;13.266;2022-11-03T01:35:39;11.27;;;4.68;;
17686;SDS011;8962;52.538;13.266;2022-11-03T01:38:05;12.55;;;5.32;;
17686;SDS011;8962;52.538;13.266;2022-11-03T01:40:34;11.35;;;5.00;;
17686;SDS011;8962;52.538;13.266;2022-11-03T01:43:14;10.65;;;4.63;;
17686;SDS011;8962;52.538;13.266;2022-11-03T01:45:41;9.68;;;4.57;;
17686;SDS011;8962;52.538;13.266;2022-11-03T01:48:09;17.73;;;5.25;;
17686;SDS011;8962;52.538;13.266;2022-11-03T01:50:38;11.73;;;4.88;;
17686;SDS011;8962;52.538;13.266;2022-11-03T01:53:08;11.10;;;4.53;;
17686;SDS011;8962;52.538;13.266;2022-11-03T01:55:37;15.57;;;4.97;;
17686;SDS011;8962;52.538;13.266;2022-11-03T01:58:06;12.35;;;4.68;;
17686;SDS011;8962;52.538;13.266;2022-11-03T02:00:38;10.65;;;4.40;;
17686;SDS011;8962;52.538;13.266;2022-11-03T02:03:08;11.00;;;4.30;;
17686;SDS011;8962;52.538;13.266;2022-11-03T02:05:35;11.77;;;5.07;;
17686;SDS011;8962;52.538;13.266;2022-11-03T02:08:04;10.88;;;4.28;;
17686;SDS011;8962;52.538;13.266;2022-11-03T02:10:34;8.50;;;3.97;;
17686;SDS011;8962;52.538;13.266;2022-11-03T02:13:06;14.02;;;4.78;;
17686;SDS011;8962;52.538;13.266;2022-11-03T02:15:37;12.35;;;4.05;;
17686;SDS011;8962;52.538;13.266;2022-11-03T02:18:05;10.68;;;4.57;;
17686;SDS011;8962;52.538;13.266;2022-11-03T02:20:32;12.27;;;4.25;;
17686;SDS011;8962;52.538;13.266;2022-11-03T02:23:03;13.25;;;4.35;;
17686;SDS011;8962;52.538;13.266;2022-11-03T02:25:45;8.55;;;3.80;;
17686;SDS011;8962;52.538;13.266;2022-11-03T02:28:13;13.60;;;4.70;;
17686;SDS011;8962;52.538;13.266;2022-11-03T02:30:44;9.93;;;3.92;;
17686;SDS011;8962;52.538;13.266;2022-11-03T02:36:04;9.75;;;4.57;;
17686;SDS011;8962;52.538;13.266;2022-11-03T02:38:37;11.13;;;4.05;;
17686;SDS011;8962;52.538;13.266;2022-11-03T02:41:12;13.77;;;4.32;;
17686;SDS011;8962;52.538;13.266;2022-11-03T02:43:40;13.75;;;4.53;;
17686;SDS011;8962;52.538;13.266;2022-11-03T02:46:09;14.82;;;4.63;;
17686;SDS011;8962;52.538;13.266;2022-11-03T02:48:38;12.75;;;4.55;;
17686;SDS011;8962;52.538;13.266;2022-11-03T02:51:05;16.48;;;5.45;;
17686;SDS011;8962;52.538;13.266;2022-11-03T02:53:33;11.13;;;4.85;;
17686;SDS011;8962;52.538;13.266;2022-11-03T02:56:04;15.93;;;4.93;;
17686;SDS011;8962;52.538;13.266;2022-11-03T02:58:38;10.43;;;4.28;;
17686;SDS011;8962;52.538;13.266;2022-11-03T03:01:10;12.43;;;4.43;;
17686;SDS011;8962;52.538;13.266;2022-11-03T03:03:43;15.80;;;4.90;;
17686;SDS011;8962;52.538;13.266;2022-11-03T03:06:13;11.27;;;4.80;;
17686;SDS011;8962;52.538;13.266;2022-11-03T03:08:45;8.75;;;4.13;;
17686;SDS011;8962;52.538;13.266;2022-11-03T03:11:16;8.65;;;4.40;;
17686;SDS011;8962;52.538;13.266;2022-11-03T03:14:03;11.10;;;4.85;;
17686;SDS011;8962;52.538;13.266;2022-11-03T03:16:34;17.83;;;5.40;;
17686;SDS011;8962;52.538;13.266;2022-11-03T03:19:08;11.52;;;5.10;;
17686;SDS011;8962;52.538;13.266;2022-11-03T03:21:43;14.55;;;6.53;;
17686;SDS011;8962;52.538;13.266;2022-11-03T03:24:14;12.45;;;5.50;;
17686;SDS011;8962;52.538;13.266;2022-11-03T03:26:48;14.38;;;6.00;;
17686;SDS011;8962;52.538;13.266;2022-11-03T03:29:19;13.18;;;5.75;;
17686;SDS011;8962;52.538;13.266;2022-11-03T03:31:49;16.08;;;5.43;;
17686;SDS011;8962;52.538;13.266;2022-11-03T03:34:20;12.82;;;5.00;;
17686;SDS011;8962;52.538;13.266;2022-11-03T03:36:50;11.80;;;4.95;;
17686;SDS011;8962;52.538;13.266;2022-11-03T03:39:17;12.07;;;5.75;;
17686;SDS011;8962;52.538;13.266;2022-11-03T03:41:48;11.63;;;5.22;;
17686;SDS011;8962;52.538;13.266;2022-11-03T03:44:17;9.85;;;4.47;;
17686;SDS011;8962;52.538;13.266;2022-11-03T03:46:48;10.23;;;4.55;;
17686;SDS011;8962;52.538;13.266;2022-11-03T03:49:18;12.23;;;4.68;;
17686;SDS011;8962;52.538;13.266;2022-11-03T03:51:45;13.68;;;5.05;;
17686;SDS011;8962;52.538;13.266;2022-11-03T03:54:13;8.85;;;4.78;;
17686;SDS011;8962;52.538;13.266;2022-11-03T03:56:41;11.23;;;5.22;;
17686;SDS011;8962;52.538;13.266;2022-11-03T03:59:13;9.60;;;4.93;;
17686;SDS011;8962;52.538;13.266;2022-11-03T04:01:41;11.10;;;4.43;;
17686;SDS011;8962;52.538;13.266;2022-11-03T04:04:08;10.30;;;4.85;;
17686;SDS011;8962;52.538;13.266;2022-11-03T04:06:35;9.70;;;4.25;;
17686;SDS011;8962;52.538;13.266;2022-11-03T04:09:02;8.88;;;4.35;;
17686;SDS011;8962;52.538;13.266;2022-11-03T04:11:29;8.68;;;4.38;;
17686;SDS011;8962;52.538;13.266;2022-11-03T04:14:14;9.70;;;4.13;;
17686;SDS011;8962;52.538;13.266;2022-11-03T04:16:59;10.95;;;5.05;;
17686;SDS011;8962;52.538;13.266;2022-11-03T04:19:44;9.18;;;4.03;;
17686;SDS011;8962;52.538;13.266;2022-11-03T04:22:28;8.85;;;4.10;;
17686;SDS011;8962;52.538;13.266;2022-11-03T04:24:57;18.08;;;5.00;;
17686;SDS011;8962;52.538;13.266;2022-11-03T04:27:29;12.13;;;4.50;;
17686;SDS011;8962;52.538;13.266;2022-11-03T04:29:58;14.57;;;4.40;;
17686;SDS011;8962;52.538;13.266;2022-11-03T04:32:33;10.55;;;4.38;;
17686;SDS011;8962;52.538;13.266;2022-11-03T04:35:00;11.52;;;4.07;;
17686;SDS011;8962;52.538;13.266;2022-11-03T04:37:32;18.38;;;4.35;;
17686;SDS011;8962;52.538;13.266;2022-11-03T04:40:00;13.93;;;4.63;;
17686;SDS011;8962;52.538;13.266;2022-11-03T04:42:28;17.35;;;4.95;;
17686;SDS011;8962;52.538;13.266;2022-11-03T04:44:58;11.48;;;3.90;;
17686;SDS011;8962;52.538;13.266;2022-11-03T04:47:27;14.15;;;4.20;;
17686;SDS011;8962;52.538;13.266;2022-11-03T04:49:57;9.48;;;4.65;;
17686;SDS011;8962;52.538;13.266;2022-11-03T04:52:24;9.68;;;4.05;;
17686;SDS011;8962;52.538;13.266;2022-11-03T04:54:52;11.77;;;4.40;;
17686;SDS011;8962;52.538;13.266;2022-11-03T04:57:19;13.10;;;4.30;;
17686;SDS011;8962;52.538;13.266;2022-11-03T04:59:48;8.73;;;4.20;;
17686;SDS011;8962;52.538;13.266;2022-11-03T05:02:16;10.05;;;4.68;;
17686;SDS011;8962;52.538;13.266;2022-11-03T05:04:46;10.55;;;4.05;;
17686;SDS011;8962;52.538;13.266;2022-11-03T05:07:20;14.55;;;5.05;;
17686;SDS011;8962;52.538;13.266;2022-11-03T05:09:56;14.93;;;4.75;;
17686;SDS011;8962;52.538;13.266;2022-11-03T05:12:23;10.30;;;3.85;;
17686;SDS011;8962;52.538;13.266;2022-11-03T05:14:51;13.93;;;4.70;;
17686;SDS011;8962;52.538;13.266;2022-11-03T05:17:20;9.30;;;3.80;;
17686;SDS011;8962;52.538;13.266;2022-11-03T05:19:49;12.10;;;4.30;;
17686;SDS011;8962;52.538;13.266;2022-11-03T05:22:17;12.10;;;4.35;;
17686;SDS011;8962;52.538;13.266;2022-11-03T05:24:48;15.13;;;4.65;;
17686;SDS011;8962;52.538;13.266;2022-11-03T05:27:19;8.73;;;3.95;;
17686;SDS011;8962;52.538;13.266;2022-11-03T05:29:47;12.65;;;4.15;;
17686;SDS011;8962;52.538;13.266;2022-11-03T05:32:17;16.48;;;4.60;;
17686;SDS011;8962;52.538;13.266;2022-11-03T05:34:47;10.70;;;4.53;;
17686;SDS011;8962;52.538;13.266;2022-11-03T05:37:23;16.42;;;4.45;;
17686;SDS011;8962;52.538;13.266;2022-11-03T05:39:55;11.73;;;4.03;;
17686;SDS011;8962;52.538;13.266;2022-11-03T05:42:30;12.30;;;4.22;;
17686;SDS011;8962;52.538;13.266;2022-11-03T05:44:59;10.27;;;4.18;;
17686;SDS011;8962;52.538;13.266;2022-11-03T05:47:30;11.07;;;4.20;;
17686;SDS011;8962;52.538;13.266;2022-11-03T05:50:08;12.38;;;4.15;;
17686;SDS011;8962;52.538;13.266;2022-11-03T05:52:42;12.48;;;4.60;;
17686;SDS011;8962;52.538;13.266;2022-11-03T05:55:18;15.88;;;4.60;;
17686;SDS011;8962;52.538;13.266;2022-11-03T05:57:52;15.80;;;4.53;;
17686;SDS011;8962;52.538;13.266;2022-11-03T06:00:23;12.73;;;4.60;;
17686;SDS011;8962;52.538;13.266;2022-11-03T06:02:53;14.35;;;4.70;;
17686;SDS011;8962;52.538;13.266;2022-11-03T06:05:21;13.98;;;4.60;;
17686;SDS011;8962;52.538;13.266;2022-11-03T06:07:50;12.27;;;4.43;;
17686;SDS011;8962;52.538;13.266;2022-11-03T06:10:22;9.00;;;4.72;;
17686;SDS011;8962;52.538;13.266;2022-11-03T06:12:52;13.75;;;4.63;;
17686;SDS011;8962;52.538;13.266;2022-11-03T06:15:23;13.82;;;5.50;;
17686;SDS011;8962;52.538;13.266;2022-11-03T06:17:54;14.27;;;4.88;;
17686;SDS011;8962;52.538;13.266;2022-11-03T06:20:21;13.50;;;5.00;;
17686;SDS011;8962;52.538;13.266;2022-11-03T06:22:48;10.93;;;4.82;;
17686;SDS011;8962;52.538;13.266;2022-11-03T06:25:21;18.92;;;5.57;;
17686;SDS011;8962;52.538;13.266;2022-11-03T06:27:52;16.27;;;4.88;;
17686;SDS011;8962;52.538;13.266;2022-11-03T06:30:23;12.07;;;4.93;;
17686;SDS011;8962;52.538;13.266;2022-11-03T06:32:52;13.75;;;5.07;;
17686;SDS011;8962;52.538;13.266;2022-11-03T06:35:20;12.00;;;4.80;;
17686;SDS011;8962;52.538;13.266;2022-11-03T06:37:47;15.38;;;5.03;;
17686;SDS011;8962;52.538;13.266;2022-11-03T06:40:29;14.48;;;5.00;;
17686;SDS011;8962;52.538;13.266;2022-11-03T06:43:08;11.75;;;4.95;;
17686;SDS011;8962;52.538;13.266;2022-11-03T06:45:44;10.68;;;5.22;;
17686;SDS011;8962;52.538;13.266;2022-11-03T06:48:15;13.68;;;5.90;;
17686;SDS011;8962;52.538;13.266;2022-11-03T06:50:48;11.18;;;5.40;;
17686;SDS011;8962;52.538;13.266;2022-11-03T06:53:18;11.85;;;5.85;;
17686;SDS011;8962;52.538;13.266;2022-11-03T06:55:48;14.10;;;5.20;;
17686;SDS011;8962;52.538;13.266;2022-11-03T06:58:19;10.93;;;5.55;;
17686;SDS011;8962;52.538;13.266;2022-11-03T07:00:52;13.32;;;5.50;;
17686;SDS011;8962;52.538;13.266;2022-11-03T07:03:22;14.82;;;6.22;;
17686;SDS011;8962;52.538;13.266;2022-11-03T07:05:54;14.55;;;5.30;;
17686;SDS011;8962;52.538;13.266;2022-11-03T07:08:23;17.20;;;5.95;;
17686;SDS011;8962;52.538;13.266;2022-11-03T07:10:57;14.73;;;5.40;;
17686;SDS011;8962;52.538;13.266;2022-11-03T07:13:28;12.75;;;5.90;;
17686;SDS011;8962;52.538;13.266;2022-11-03T07:15:57;13.35;;;5.68;;
17686;SDS011;8962;52.538;13.266;2022-11-03T07:18:25;15.38;;;5.97;;
17686;SDS011;8962;52.538;13.266;2022-11-03T07:20:57;14.70;;;6.30;;
17686;SDS011;8962;52.538;13.266;2022-11-03T07:23:28;14.38;;;6.53;;
17686;SDS011;8962;52.538;13.266;2022-11-03T07:25:58;11.13;;;5.32;;
17686;SDS011;8962;52.538;13.266;2022-11-03T07:28:28;11.48;;;5.15;;
17686;SDS011;8962;52.538;13.266;2022-11-03T07:30:59;12.70;;;5.20;;
17686;SDS011;8962;52.538;13.266;2022-11-03T07:33:28;11.00;;;5.32;;
17686;SDS011;8962;52.538;13.266;2022-11-03T07:35:57;13.02;;;5.40;;
17686;SDS011;8962;52.538;13.266;2022-11-03T07:38:24;10.00;;;5.38;;
17686;SDS011;8962;52.538;13.266;2022-11-03T07:40:55;14.38;;;5.32;;
17686;SDS011;8962;52.538;13.266;2022-11-03T07:43:27;13.52;;;5.75;;
17686;SDS011;8962;52.538;13.266;2022-11-03T07:45:56;10.05;;;4.80;;
17686;SDS011;8962;52.538;13.266;2022-11-03T07:48:25;11.65;;;5.05;;
17686;SDS011;8962;52.538;13.266;2022-11-03T07:50:54;12.65;;;5.30;;
17686;SDS011;8962;52.538;13.266;2022-11-03T07:53:24;13.75;;;5.30;;
17686;SDS011;8962;52.538;13.266;2022-11-03T07:56:01;12.10;;;5.40;;
17686;SDS011;8962;52.538;13.266;2022-11-03T07:58:40;13.00;;;4.50;;
17686;SDS011;8962;52.538;13.266;2022-11-03T08:01:15;12.13;;;5.07;;
17686;SDS011;8962;52.538;13.266;2022-11-03T08:03:48;9.88;;;4.50;;
17686;SDS011;8962;52.538;13.266;2022-11-03T08:06:16;9.18;;;4.75;;
17686;SDS011;8962;52.538;13.266;2022-11-03T08:08:43;13.45;;;4.93;;
17686;SDS011;8962;52.538;13.266;2022-11-03T08:11:11;12.50;;;5.00;;
17686;SDS011;8962;52.538;13.266;2022-11-03T08:13:38;12.05;;;4.68;;
17686;SDS011;8962;52.538;13.266;2022-11-03T08:16:05;11.60;;;4.55;;
17686;SDS011;8962;52.538;13.266;2022-11-03T08:18:32;12.05;;;4.88;;
17686;SDS011;8962;52.538;13.266;2022-11-03T08:21:01;13.00;;;4.57;;
17686;SDS011;8962;52.538;13.266;2022-11-03T08:23:28;10.73;;;4.57;;
17686;SDS011;8962;52.538;13.266;2022-11-03T08:25:55;14.32;;;4.57;;
17686;SDS011;8962;52.538;13.266;2022-11-03T08:28:24;14.55;;;4.90;;
17686;SDS011;8962;52.538;13.266;2022-11-03T08:30:51;10.02;;;4.25;;
17686;SDS011;8962;52.538;13.266;2022-11-03T08:33:18;14.52;;;4.53;;
17686;SDS011;8962;52.538;13.266;2022-11-03T08:35:45;10.70;;;4.45;;
17686;SDS011;8962;52.538;13.266;2022-11-03T08:38:12;16.83;;;4.40;;
17686;SDS011;8962;52.538;13.266;2022-11-03T08:40:38;11.00;;;4.47;;
17686;SDS011;8962;52.538;13.266;2022-11-03T08:43:05;11.20;;;4.30;;
17686;SDS011;8962;52.538;13.266;2022-11-03T08:45:33;16.17;;;4.60;;
17686;SDS011;8962;52.538;13.266;2022-11-03T08:48:01;15.20;;;3.85;;
17686;SDS011;8962;52.538;13.266;2022-11-03T08:50:28;10.85;;;4.22;;
17686;SDS011;8962;52.538;13.266;2022-11-03T08:52:55;10.68;;;3.83;;
17686;SDS011;8962;52.538;13.266;2022-11-03T08:55:22;10.68;;;3.78;;
17686;SDS011;8962;52.538;13.266;2022-11-03T08:57:49;15.23;;;4.32;;
17686;SDS011;8962;52.538;13.266;2022-11-03T09:00:16;12.25;;;4.40;;
17686;SDS011;8962;52.538;13.266;2022-11-03T09:02:45;11.02;;;4.20;;
17686;SDS011;8962;52.538;13.266;2022-11-03T09:05:12;10.05;;;4.05;;
17686;SDS011;8962;52.538;13.266;2022-11-03T09:07:39;15.20;;;3.65;;
17686;SDS011;8962;52.538;13.266;2022-11-03T09:10:07;10.10;;;3.55;;
17686;SDS011;8962;52.538;13.266;2022-11-03T09:12:35;12.55;;;3.72;;
17686;SDS011;8962;52.538;13.266;2022-11-03T09:15:04;10.60;;;3.78;;
17686;SDS011;8962;52.538;13.266;2022-11-03T09:17:32;10.93;;;3.45;;
17686;SDS011;8962;52.538;13.266;2022-11-03T09:20:01;9.00;;;3.20;;
17686;SDS011;8962;52.538;13.266;2022-11-03T09:22:28;11.00;;;3.70;;
17686;SDS011;8962;52.538;13.266;2022-11-03T09:24:55;6.05;;;3.05;;
17686;SDS011;8962;52.538;13.266;2022-11-03T09:27:23;7.68;;;3.35;;
17686;SDS011;8962;52.538;13.266;2022-11-03T09:29:50;9.32;;;3.28;;
17686;SDS011;8962;52.538;13.266;2022-11-03T09:32:17;6.28;;;3.10;;
17686;SDS011;8962;52.538;13.266;2022-11-03T09:34:44;11.32;;;3.47;;
17686;SDS011;8962;52.538;13.266;2022-11-03T09:37:13;13.70;;;3.30;;
17686;SDS011;8962;52.538;13.266;2022-11-03T09:39:40;11.38;;;3.67;;
17686;SDS011;8962;52.538;13.266;2022-11-03T09:42:07;16.90;;;3.92;;
17686;SDS011;8962;52.538;13.266;2022-11-03T09:44:36;10.98;;;3.25;;
17686;SDS011;8962;52.538;13.266;2022-11-03T09:47:04;9.38;;;3.30;;
17686;SDS011;8962;52.538;13.266;2022-11-03T09:49:32;6.97;;;3.17;;
17686;SDS011;8962;52.538;13.266;2022-11-03T09:52:00;9.07;;;3.28;;
17686;SDS011;8962;52.538;13.266;2022-11-03T09:54:29;9.90;;;3.13;;
17686;SDS011;8962;52.538;13.266;2022-11-03T09:56:57;11.85;;;3.78;;
17686;SDS011;8962;52.538;13.266;2022-11-03T09:59:35;8.57;;;3.17;;
17686;SDS011;8962;52.538;13.266;2022-11-03T10:02:04;11.23;;;3.97;;
17686;SDS011;8962;52.538;13.266;2022-11-03T10:04:44;9.25;;;3.10;;
17686;SDS011;8962;52.538;13.266;2022-11-03T10:07:12;8.15;;;3.15;;
17686;SDS011;8962;52.538;13.266;2022-11-03T10:09:41;8.32;;;3.20;;
17686;SDS011;8962;52.538;13.266;2022-11-03T10:12:11;7.30;;;2.67;;
17686;SDS011;8962;52.538;13.266;2022-11-03T10:14:38;9.45;;;3.10;;
17686;SDS011;8962;52.538;13.266;2022-11-03T10:17:07;10.57;;;3.50;;
17686;SDS011;8962;52.538;13.266;2022-11-03T10:19:41;13.45;;;3.47;;
17686;SDS011;8962;52.538;13.266;2022-11-03T10:22:08;9.65;;;3.92;;
17686;SDS011;8962;52.538;13.266;2022-11-03T10:24:35;11.30;;;3.38;;
17686;SDS011;8962;52.538;13.266;2022-11-03T10:27:05;7.50;;;3.05;;
17686;SDS011;8962;52.538;13.266;2022-11-03T10:29:47;11.82;;;3.15;;
17686;SDS011;8962;52.538;13.266;2022-11-03T10:32:31;9.13;;;3.25;;
17686;SDS011;8962;52.538;13.266;2022-11-03T10:35:00;8.93;;;2.97;;
17686;SDS011;8962;52.538;13.266;2022-11-03T10:37:27;8.68;;;2.92;;
17686;SDS011;8962;52.538;13.266;2022-11-03T10:39:54;10.30;;;3.60;;
17686;SDS011;8962;52.538;13.266;2022-11-03T10:42:25;11.18;;;3.70;;
17686;SDS011;8962;52.538;13.266;2022-11-03T10:45:07;9.30;;;3.03;;
17686;SDS011;8962;52.538;13.266;2022-11-03T10:47:36;7.60;;;2.83;;
17686;SDS011;8962;52.538;13.266;2022-11-03T10:50:11;9.25;;;3.28;;
17686;SDS011;8962;52.538;13.266;2022-11-03T10:52:46;9.15;;;3.25;;
17686;SDS011;8962;52.538;13.266;2022-11-03T10:55:13;9.23;;;3.20;;
17686;SDS011;8962;52.538;13.266;2022-11-03T10:57:41;8.82;;;2.58;;
17686;SDS011;8962;52.538;13.266;2022-11-03T11:00:11;8.65;;;2.78;;
17686;SDS011;8962;52.538;13.266;2022-11-03T11:02:39;8.02;;;2.80;;
17686;SDS011;8962;52.538;13.266;2022-11-03T11:05:10;6.20;;;2.70;;
17686;SDS011;8962;52.538;13.266;2022-11-03T11:07:41;11.95;;;4.00;;
17686;SDS011;8962;52.538;13.266;2022-11-03T11:10:11;8.45;;;2.70;;
17686;SDS011;8962;52.538;13.266;2022-11-03T11:15:40;12.55;;;3.50;;
17686;SDS011;8962;52.538;13.266;2022-11-03T11:18:09;6.78;;;2.90;;
17686;SDS011;8962;52.538;13.266;2022-11-03T11:20:37;13.65;;;3.83;;
17686;SDS011;8962;52.538;13.266;2022-11-03T11:35:17;12.68;;;5.55;;
17686;SDS011;8962;52.538;13.266;2022-11-03T11:38:51;10.38;;;2.70;;
17686;SDS011;8962;52.538;13.266;2022-11-03T11:47:20;9.73;;;3.17;;
17686;SDS011;8962;52.538;13.266;2022-11-03T11:52:43;6.70;;;3.25;;
17686;SDS011;8962;52.538;13.266;2022-11-03T11:55:17;9.13;;;3.13;;
17686;SDS011;8962;52.538;13.266;2022-11-03T11:57:48;7.35;;;3.10;;
17686;SDS011;8962;52.538;13.266;2022-11-03T12:00:17;8.60;;;2.55;;
17686;SDS011;8962;52.538;13.266;2022-11-03T12:02:46;10.52;;;3.28;;
17686;SDS011;8962;52.538;13.266;2022-11-03T12:05:21;12.05;;;3.83;;
17686;SDS011;8962;52.538;13.266;2022-11-03T12:07:50;9.48;;;2.72;;
17686;SDS011;8962;52.538;13.266;2022-11-03T12:10:19;5.63;;;2.67;;
17686;SDS011;8962;52.538;13.266;2022-11-03T12:12:48;10.00;;;3.42;;
17686;SDS011;8962;52.538;13.266;2022-11-03T12:18:33;11.18;;;3.42;;
17686;SDS011;8962;52.538;13.266;2022-11-03T12:21:02;7.35;;;3.13;;
17686;SDS011;8962;52.538;13.266;2022-11-03T12:23:31;8.00;;;3.10;;
17686;SDS011;8962;52.538;13.266;2022-11-03T12:26:00;11.45;;;3.20;;
17686;SDS011;8962;52.538;13.266;2022-11-03T12:28:34;10.82;;;3.85;;
17686;SDS011;8962;52.538;13.266;2022-11-03T12:31:02;8.75;;;3.55;;
17686;SDS011;8962;52.538;13.266;2022-11-03T12:33:29;7.40;;;2.70;;
17686;SDS011;8962;52.538;13.266;2022-11-03T12:35:56;11.45;;;3.55;;
17686;SDS011;8962;52.538;13.266;2022-11-03T12:38:25;12.88;;;5.88;;
17686;SDS011;8962;52.538;13.266;2022-11-03T12:40:52;8.38;;;3.08;;
17686;SDS011;8962;52.538;13.266;2022-11-03T12:43:21;6.90;;;3.45;;
17686;SDS011;8962;52.538;13.266;2022-11-03T12:45:48;10.15;;;3.38;;
17686;SDS011;8962;52.538;13.266;2022-11-03T12:48:15;7.75;;;3.60;;
17686;SDS011;8962;52.538;13.266;2022-11-03T12:50:43;9.30;;;3.33;;
17686;SDS011;8962;52.538;13.266;2022-11-03T12:53:12;8.93;;;2.92;;
17686;SDS011;8962;52.538;13.266;2022-11-03T12:55:47;13.25;;;3.53;;
17686;SDS011;8962;52.538;13.266;2022-11-03T12:58:14;11.95;;;3.80;;
17686;SDS011;8962;52.538;13.266;2022-11-03T13:00:43;9.02;;;3.50;;
17686;SDS011;8962;52.538;13.266;2022-11-03T13:03:10;8.77;;;3.38;;
17686;SDS011;8962;52.538;13.266;2022-11-03T13:05:37;10.52;;;3.08;;
17686;SDS011;8962;52.538;13.266;2022-11-03T13:08:05;8.40;;;3.47;;
17686;SDS011;8962;52.538;13.266;2022-11-03T13:10:32;6.78;;;3.05;;
17686;SDS011;8962;52.538;13.266;2022-11-03T13:12:59;9.30;;;3.03;;
17686;SDS011;8962;52.538;13.266;2022-11-03T13:15:27;6.65;;;2.95;;
17686;SDS011;8962;52.538;13.266;2022-11-03T13:17:57;10.57;;;3.58;;
17686;SDS011;8962;52.538;13.266;2022-11-03T13:20:24;10.65;;;3.28;;
17686;SDS011;8962;52.538;13.266;2022-11-03T13:22:51;15.23;;;7.15;;
17686;SDS011;8962;52.538;13.266;2022-11-03T13:25:18;8.93;;;4.07;;
17686;SDS011;8962;52.538;13.266;2022-11-03T13:27:48;11.07;;;3.50;;
17686;SDS011;8962;52.538;13.266;2022-11-03T13:30:19;10.43;;;3.47;;
17686;SDS011;8962;52.538;13.266;2022-11-03T13:32:47;7.68;;;3.22;;
17686;SDS011;8962;52.538;13.266;2022-11-03T13:35:16;12.85;;;4.38;;
17686;SDS011;8962;52.538;13.266;2022-11-03T13:37:44;11.55;;;5.00;;
17686;SDS011;8962;52.538;13.266;2022-11-03T13:40:13;11.15;;;3.88;;
17686;SDS011;8962;52.538;13.266;2022-11-03T13:42:41;11.98;;;4.07;;
17686;SDS011;8962;52.538;13.266;2022-11-03T13:45:09;10.32;;;3.53;;
17686;SDS011;8962;52.538;13.266;2022-11-03T13:47:37;9.02;;;3.63;;
17686;SDS011;8962;52.538;13.266;2022-11-03T13:50:04;7.22;;;3.20;;
17686;SDS011;8962;52.538;13.266;2022-11-03T13:52:34;8.18;;;3.65;;
17686;SDS011;8962;52.538;13.266;2022-11-03T13:55:03;9.43;;;3.30;;
17686;SDS011;8962;52.538;13.266;2022-11-03T13:57:31;10.63;;;3.45;;
17686;SDS011;8962;52.538;13.266;2022-11-03T13:59:59;10.73;;;4.03;;
17686;SDS011;8962;52.538;13.266;2022-11-03T14:02:27;18.95;;;5.75;;
17686;SDS011;8962;52.538;13.266;2022-11-03T14:04:55;9.40;;;3.63;;
17686;SDS011;8962;52.538;13.266;2022-11-03T14:07:25;17.80;;;7.57;;
17686;SDS011;8962;52.538;13.266;2022-11-03T14:09:54;10.02;;;3.95;;
17686;SDS011;8962;52.538;13.266;2022-11-03T14:12:21;18.20;;;6.45;;
17686;SDS011;8962;52.538;13.266;2022-11-03T14:14:55;10.50;;;3.90;;
17686;SDS011;8962;52.538;13.266;2022-11-03T14:17:23;11.38;;;3.90;;
17686;SDS011;8962;52.538;13.266;2022-11-03T14:19:50;10.68;;;3.70;;
17686;SDS011;8962;52.538;13.266;2022-11-03T14:22:19;8.05;;;3.92;;
17686;SDS011;8962;52.538;13.266;2022-11-03T14:24:47;12.48;;;4.57;;
17686;SDS011;8962;52.538;13.266;2022-11-03T14:27:16;8.82;;;3.75;;
17686;SDS011;8962;52.538;13.266;2022-11-03T14:29:44;10.30;;;4.00;;
17686;SDS011;8962;52.538;13.266;2022-11-03T14:32:13;12.98;;;3.85;;
17686;SDS011;8962;52.538;13.266;2022-11-03T14:34:42;9.45;;;3.78;;
17686;SDS011;8962;52.538;13.266;2022-11-03T14:37:09;10.50;;;3.97;;
17686;SDS011;8962;52.538;13.266;2022-11-03T14:39:37;11.52;;;4.03;;
17686;SDS011;8962;52.538;13.266;2022-11-03T14:42:05;7.32;;;3.30;;
17686;SDS011;8962;52.538;13.266;2022-11-03T14:44:39;11.30;;;3.63;;
17686;SDS011;8962;52.538;13.266;2022-11-03T14:47:07;10.02;;;4.00;;
17686;SDS011;8962;52.538;13.266;2022-11-03T14:49:44;15.02;;;5.90;;
17686;SDS011;8962;52.538;13.266;2022-11-03T14:52:13;16.08;;;5.13;;
17686;SDS011;8962;52.538;13.266;2022-11-03T14:54:41;9.38;;;4.05;;
17686;SDS011;8962;52.538;13.266;2022-11-03T14:57:08;10.15;;;4.35;;
17686;SDS011;8962;52.538;13.266;2022-11-03T14:59:35;12.10;;;4.88;;
17686;SDS011;8962;52.538;13.266;2022-11-03T15:02:04;12.82;;;4.57;;
17686;SDS011;8962;52.538;13.266;2022-11-03T15:04:33;9.45;;;4.03;;
17686;SDS011;8962;52.538;13.266;2022-11-03T15:07:01;13.93;;;4.53;;
17686;SDS011;8962;52.538;13.266;2022-11-03T15:09:29;11.68;;;5.07;;
17686;SDS011;8962;52.538;13.266;2022-11-03T15:11:56;12.00;;;5.13;;
17686;SDS011;8962;52.538;13.266;2022-11-03T15:14:24;17.92;;;6.13;;
17686;SDS011;8962;52.538;13.266;2022-11-03T15:16:54;20.15;;;10.15;;
17686;SDS011;8962;52.538;13.266;2022-11-03T15:19:22;15.35;;;5.75;;
17686;SDS011;8962;52.538;13.266;2022-11-03T15:21:49;14.75;;;6.45;;
17686;SDS011;8962;52.538;13.266;2022-11-03T15:24:17;12.73;;;4.95;;